createdAt,value
2023-05-20T00:07:50.800Z,61.90
2023-05-20T00:17:49.910Z,61.70
2023-05-20T00:27:48.816Z,61.80
2023-05-20T00:37:47.792Z,62.30
2023-05-20T00:47:46.855Z,62.80
2023-05-20T00:57:45.798Z,62.90
2023-05-20T01:07:45.296Z,63.50
2023-05-20T01:17:46.293Z,63.40
2023-05-20T01:27:44.797Z,63.60
2023-05-20T01:37:43.873Z,63.50
2023-05-20T01:47:42.927Z,63.80
2023-05-20T01:57:41.923Z,64.40
2023-05-20T02:07:40.835Z,64.20
2023-05-20T02:17:39.944Z,64.10
2023-05-20T02:27:40.349Z,64.50
2023-05-20T02:37:39.102Z,64.60
2023-05-20T02:47:38.824Z,64.60
2023-05-20T02:57:38.724Z,65.00
2023-05-20T03:07:39.758Z,65.40
2023-05-20T03:17:39.018Z,65.70
2023-05-20T03:27:38.182Z,67.80
2023-05-20T03:37:37.118Z,68.10
2023-05-20T03:47:36.312Z,69.10
2023-05-20T03:57:36.636Z,69.70
2023-05-20T04:07:37.218Z,69.90
2023-05-20T04:17:38.251Z,70.00
2023-05-20T04:27:38.357Z,70.20
2023-05-20T04:37:38.774Z,70.10
2023-05-20T04:47:39.146Z,70.10
2023-05-20T04:57:40.072Z,70.00
2023-05-20T05:07:39.246Z,69.80
2023-05-20T05:17:39.013Z,68.50
2023-05-20T05:27:38.253Z,67.00
2023-05-20T05:37:37.699Z,66.30
2023-05-20T05:47:37.128Z,67.10
2023-05-20T05:57:36.360Z,65.40
2023-05-20T06:07:35.185Z,63.70
2023-05-20T06:17:34.335Z,64.50
2023-05-20T06:27:33.094Z,65.40
2023-05-20T06:37:32.135Z,65.70
2023-05-20T06:47:31.232Z,65.70
2023-05-20T06:57:30.428Z,65.10
2023-05-20T07:07:30.159Z,64.70
2023-05-20T07:17:30.157Z,64.60
2023-05-20T07:27:29.220Z,63.90
2023-05-20T07:37:28.334Z,63.00
2023-05-20T07:47:27.453Z,62.20
2023-05-20T07:57:26.341Z,62.60
2023-05-20T08:07:27.069Z,61.90
2023-05-20T08:17:27.712Z,60.80
2023-05-20T08:27:26.280Z,60.90
2023-05-20T08:37:25.562Z,60.60
2023-05-20T08:47:24.314Z,61.10
2023-05-20T08:57:23.099Z,60.50
2023-05-20T09:07:22.143Z,59.30
2023-05-20T09:17:21.298Z,60.00
2023-05-20T09:27:20.807Z,59.60
2023-05-20T09:37:21.355Z,58.10
2023-05-20T09:47:20.106Z,58.00
2023-05-20T09:57:19.173Z,58.60
2023-05-20T10:07:20.953Z,56.70
2023-05-20T10:17:19.239Z,56.70
2023-05-20T10:27:18.182Z,56.30
2023-05-20T10:37:17.169Z,56.50
2023-05-20T10:47:25.343Z,56.90
2023-05-20T10:57:17.256Z,57.50
2023-05-20T11:07:16.487Z,57.80
2023-05-20T11:17:15.207Z,58.20
2023-05-20T11:27:14.249Z,57.10
2023-05-20T11:37:15.137Z,57.90
2023-05-20T11:47:14.330Z,57.20
2023-05-20T11:57:13.316Z,55.80
2023-05-20T12:07:14.135Z,56.10
2023-05-20T12:17:13.256Z,55.70
2023-05-20T12:27:12.274Z,55.30
2023-05-20T12:37:11.273Z,54.40
2023-05-20T12:47:10.395Z,53.60
2023-05-20T12:57:09.280Z,54.30
2023-05-20T13:07:08.281Z,53.40
2023-05-20T13:17:07.372Z,53.50
2023-05-20T13:27:06.286Z,54.30
2023-05-20T13:37:05.481Z,54.20
2023-05-20T13:47:04.346Z,53.10
2023-05-20T13:57:05.176Z,53.40
2023-05-20T14:07:04.564Z,52.00
2023-05-20T14:17:04.348Z,52.20
2023-05-20T14:27:03.375Z,52.10
2023-05-20T14:37:04.838Z,53.90
2023-05-20T14:47:03.378Z,55.20
2023-05-20T14:57:03.644Z,56.80
2023-05-20T15:07:02.463Z,56.20
2023-05-20T15:17:01.451Z,55.30
2023-05-20T15:27:00.367Z,56.90
2023-05-20T15:36:59.387Z,56.10
2023-05-20T15:46:58.417Z,56.30
2023-05-20T15:56:57.958Z,57.30
2023-05-20T16:06:56.451Z,58.10
2023-05-20T16:16:55.404Z,59.20
2023-05-20T16:26:54.423Z,60.70
2023-05-20T16:36:53.440Z,61.50
2023-05-20T16:46:54.014Z,62.10
2023-05-20T16:56:53.443Z,61.40
2023-05-20T17:06:52.447Z,61.70
2023-05-20T17:16:51.546Z,62.00
2023-05-20T17:26:50.468Z,63.00
2023-05-20T17:36:49.494Z,63.70
2023-05-20T17:46:48.624Z,64.20
2023-05-20T17:56:47.465Z,64.30
2023-05-20T18:06:46.573Z,64.60
2023-05-20T18:16:45.595Z,64.80
2023-05-20T18:26:44.615Z,65.30
2023-05-20T18:36:43.525Z,65.80
2023-05-20T18:46:42.525Z,65.90
2023-05-20T18:56:41.535Z,67.60
2023-05-20T19:06:41.346Z,67.80
2023-05-20T19:16:40.848Z,69.10
2023-05-20T19:26:39.525Z,69.80
2023-05-20T19:36:40.079Z,70.70
2023-05-20T19:46:38.579Z,73.00
2023-05-20T19:56:37.549Z,73.10
2023-05-20T20:06:36.609Z,74.30
2023-05-20T20:16:36.595Z,74.80
2023-05-20T20:26:35.663Z,76.20
2023-05-20T20:36:34.591Z,76.40
2023-05-20T20:46:33.636Z,77.10
2023-05-20T20:56:34.461Z,77.90
2023-05-20T21:06:33.650Z,78.20
2023-05-20T21:16:32.654Z,78.80
2023-05-20T21:26:31.638Z,79.20
2023-05-20T21:36:31.930Z,80.30
2023-05-20T21:46:30.629Z,80.70
2023-05-20T21:56:29.614Z,80.90
2023-05-20T22:06:28.643Z,81.40
2023-05-20T22:16:28.510Z,81.50
2023-05-20T22:26:28.066Z,81.50
2023-05-20T22:36:26.649Z,81.70
2023-05-20T22:46:25.806Z,82.30
2023-05-20T22:56:25.388Z,82.80
2023-05-20T23:06:25.194Z,82.80
2023-05-20T23:16:25.917Z,83.50
2023-05-20T23:26:26.602Z,83.70
2023-05-20T23:36:25.773Z,83.70
2023-05-20T23:46:25.325Z,84.40
2023-05-20T23:56:23.706Z,84.60
